sensor_id;sensor_type;location;lat;lon;timestamp;pressure;altitude;pressure_sealevel;temperature;humidity
86098;BME280;76712;40.528;21.262;2024-02-28T00:17:19;94072.17;;;17.68;44.75
86098;BME280;76712;40.528;21.262;2024-02-28T00:19:47;94064.75;;;17.68;44.50
86098;BME280;76712;40.528;21.262;2024-02-28T00:22:13;94062.95;;;17.68;44.47
86098;BME280;76712;40.528;21.262;2024-02-28T00:24:40;94062.96;;;17.68;44.66
86098;BME280;76712;40.528;21.262;2024-02-28T00:27:30;94060.89;;;17.67;44.60
86098;BME280;76712;40.528;21.262;2024-02-28T00:30:05;94057.37;;;17.68;44.49
86098;BME280;76712;40.528;21.262;2024-02-28T00:32:32;94059.58;;;17.67;44.53
86098;BME280;76712;40.528;21.262;2024-02-28T00:34:58;94059.80;;;17.67;44.66
86098;BME280;76712;40.528;21.262;2024-02-28T00:37:24;94058.55;;;17.66;44.58
86098;BME280;76712;40.528;21.262;2024-02-28T00:39:51;94060.63;;;17.66;44.70
86098;BME280;76712;40.528;21.262;2024-02-28T00:42:17;94060.95;;;17.66;44.64
86098;BME280;76712;40.528;21.262;2024-02-28T00:44:46;94059.15;;;17.66;44.72
86098;BME280;76712;40.528;21.262;2024-02-28T00:51:05;94054.81;;;17.65;44.67
86098;BME280;76712;40.528;21.262;2024-02-28T00:53:41;94052.31;;;17.65;44.71
86098;BME280;76712;40.528;21.262;2024-02-28T01:06:47;94041.31;;;17.64;44.74
86098;BME280;76712;40.528;21.262;2024-02-28T01:09:13;94039.64;;;17.63;44.76
86098;BME280;76712;40.528;21.262;2024-02-28T01:14:25;94034.44;;;17.62;44.84
86098;BME280;76712;40.528;21.262;2024-02-28T01:20:08;94031.84;;;17.62;44.80
86098;BME280;76712;40.528;21.262;2024-02-28T01:22:43;94034.44;;;17.62;44.68
86098;BME280;76712;40.528;21.262;2024-02-28T01:25:09;94034.48;;;17.61;44.78
86098;BME280;76712;40.528;21.262;2024-02-28T01:27:36;94032.30;;;17.61;44.75
86098;BME280;76712;40.528;21.262;2024-02-28T01:30:02;94027.87;;;17.61;44.76
86098;BME280;76712;40.528;21.262;2024-02-28T01:32:32;94029.42;;;17.61;44.73
86098;BME280;76712;40.528;21.262;2024-02-28T01:34:58;94028.14;;;17.60;44.68
86098;BME280;76712;40.528;21.262;2024-02-28T01:44:17;94025.27;;;17.59;44.70
86098;BME280;76712;40.528;21.262;2024-02-28T01:46:43;94023.65;;;17.59;44.89
86098;BME280;76712;40.528;21.262;2024-02-28T01:49:10;94022.40;;;17.59;44.92
86098;BME280;76712;40.528;21.262;2024-02-28T01:51:37;94018.88;;;17.59;44.70
86098;BME280;76712;40.528;21.262;2024-02-28T02:13:08;94020.23;;;17.57;44.93
86098;BME280;76712;40.528;21.262;2024-02-28T02:15:34;94023.32;;;17.57;44.80
86098;BME280;76712;40.528;21.262;2024-02-28T02:31:28;94015.30;;;17.54;44.76
86098;BME280;76712;40.528;21.262;2024-02-28T02:33:57;94017.45;;;17.55;44.88
86098;BME280;76712;40.528;21.262;2024-02-28T02:36:22;94009.55;;;17.54;44.87
86098;BME280;76712;40.528;21.262;2024-02-28T02:55:21;94007.16;;;17.52;44.82
86098;BME280;76712;40.528;21.262;2024-02-28T02:57:46;94008.40;;;17.53;44.94
86098;BME280;76712;40.528;21.262;2024-02-28T03:00:13;94006.17;;;17.53;44.91
86098;BME280;76712;40.528;21.262;2024-02-28T03:02:39;94008.78;;;17.53;44.78
86098;BME280;76712;40.528;21.262;2024-02-28T03:05:25;94011.64;;;17.53;45.04
86098;BME280;76712;40.528;21.262;2024-02-28T03:07:54;94014.37;;;17.52;45.01
86098;BME280;76712;40.528;21.262;2024-02-28T03:10:23;94014.05;;;17.52;44.99
86098;BME280;76712;40.528;21.262;2024-02-28T03:12:48;94009.86;;;17.52;44.94
86098;BME280;76712;40.528;21.262;2024-02-28T03:15:15;94009.71;;;17.51;44.85
86098;BME280;76712;40.528;21.262;2024-02-28T03:17:41;94008.52;;;17.51;44.91
86098;BME280;76712;40.528;21.262;2024-02-28T03:26:49;94024.30;;;17.51;45.03
86098;BME280;76712;40.528;21.262;2024-02-28T03:29:15;94029.77;;;17.50;45.04
86098;BME280;76712;40.528;21.262;2024-02-28T03:31:40;94029.81;;;17.49;44.99
86098;BME280;76712;40.528;21.262;2024-02-28T03:34:06;94038.91;;;17.50;44.94
86098;BME280;76712;40.528;21.262;2024-02-28T03:36:32;94039.35;;;17.49;45.08
86098;BME280;76712;40.528;21.262;2024-02-28T03:39:01;94038.00;;;17.50;44.98
86098;BME280;76712;40.528;21.262;2024-02-28T03:41:27;94040.60;;;17.50;45.02
86098;BME280;76712;40.528;21.262;2024-02-28T03:43:53;94045.26;;;17.49;45.06
86098;BME280;76712;40.528;21.262;2024-02-28T03:46:19;94050.09;;;17.48;45.12
86098;BME280;76712;40.528;21.262;2024-02-28T03:48:44;94051.98;;;17.48;44.96
86098;BME280;76712;40.528;21.262;2024-02-28T03:51:13;94055.90;;;17.48;45.07
86098;BME280;76712;40.528;21.262;2024-02-28T03:53:40;94059.95;;;17.47;45.09
86098;BME280;76712;40.528;21.262;2024-02-28T03:56:07;94054.14;;;17.47;44.92
86098;BME280;76712;40.528;21.262;2024-02-28T03:58:33;94056.57;;;17.47;44.99
86098;BME280;76712;40.528;21.262;2024-02-28T04:00:59;94056.80;;;17.47;45.04
86098;BME280;76712;40.528;21.262;2024-02-28T04:03:25;94052.68;;;17.47;45.16
86098;BME280;76712;40.528;21.262;2024-02-28T04:05:51;94054.52;;;17.46;44.99
86098;BME280;76712;40.528;21.262;2024-02-28T04:08:20;94052.63;;;17.46;44.88
86098;BME280;76712;40.528;21.262;2024-02-28T04:17:17;94044.71;;;17.45;45.04
86098;BME280;76712;40.528;21.262;2024-02-28T04:19:43;94045.10;;;17.45;45.10
86098;BME280;76712;40.528;21.262;2024-02-28T04:28:51;94037.93;;;17.44;44.99
86098;BME280;76712;40.528;21.262;2024-02-28T04:31:31;94037.73;;;17.43;44.85
86098;BME280;76712;40.528;21.262;2024-02-28T04:33:57;94043.36;;;17.43;45.09
86098;BME280;76712;40.528;21.262;2024-02-28T04:36:23;94040.05;;;17.43;45.07
86098;BME280;76712;40.528;21.262;2024-02-28T04:49:03;94043.53;;;17.42;44.88
86098;BME280;76712;40.528;21.262;2024-02-28T05:05:02;94048.94;;;17.41;45.07
86098;BME280;76712;40.528;21.262;2024-02-28T05:20:18;94032.24;;;17.40;44.96
86098;BME280;76712;40.528;21.262;2024-02-28T05:33:05;94055.92;;;17.40;45.05
86098;BME280;76712;40.528;21.262;2024-02-28T05:56:39;94088.05;;;17.38;45.17
86098;BME280;76712;40.528;21.262;2024-02-28T06:05:53;94097.37;;;17.37;45.04
86098;BME280;76712;40.528;21.262;2024-02-28T06:08:20;94105.02;;;17.37;45.07
86098;BME280;76712;40.528;21.262;2024-02-28T06:10:46;94103.66;;;17.38;44.99
86098;BME280;76712;40.528;21.262;2024-02-28T06:13:15;94107.77;;;17.39;45.05
86098;BME280;76712;40.528;21.262;2024-02-28T06:15:41;94108.16;;;17.41;44.89
86098;BME280;76712;40.528;21.262;2024-02-28T06:18:08;94106.11;;;17.42;44.86
86098;BME280;76712;40.528;21.262;2024-02-28T06:20:34;94109.85;;;17.43;44.77
86098;BME280;76712;40.528;21.262;2024-02-28T06:23:05;94111.65;;;17.45;44.80
86098;BME280;76712;40.528;21.262;2024-02-28T06:29:26;94109.55;;;17.52;44.55
86098;BME280;76712;40.528;21.262;2024-02-28T06:39:45;94110.33;;;17.66;44.46
86098;BME280;76712;40.528;21.262;2024-02-28T06:45:39;94116.27;;;17.76;44.32
86098;BME280;76712;40.528;21.262;2024-02-28T06:48:09;94121.28;;;17.81;44.41
86098;BME280;76712;40.528;21.262;2024-02-28T06:50:35;94122.54;;;17.85;44.29
86098;BME280;76712;40.528;21.262;2024-02-28T06:53:04;94122.16;;;17.90;44.14
86098;BME280;76712;40.528;21.262;2024-02-28T06:55:30;94122.33;;;17.95;44.21
86098;BME280;76712;40.528;21.262;2024-02-28T06:57:56;94122.38;;;18.00;44.05
86098;BME280;76712;40.528;21.262;2024-02-28T07:00:45;94121.35;;;18.04;44.03
86098;BME280;76712;40.528;21.262;2024-02-28T07:13:25;94127.44;;;18.29;43.59
86098;BME280;76712;40.528;21.262;2024-02-28T07:19:36;94132.95;;;18.44;43.44
86098;BME280;76712;40.528;21.262;2024-02-28T07:22:11;94128.49;;;18.48;43.25
86098;BME280;76712;40.528;21.262;2024-02-28T07:27:54;94131.34;;;18.62;43.09
86098;BME280;76712;40.528;21.262;2024-02-28T07:30:51;94131.39;;;18.69;42.95
86098;BME280;76712;40.528;21.262;2024-02-28T07:36:22;94131.27;;;18.81;42.78
86098;BME280;76712;40.528;21.262;2024-02-28T07:38:48;94135.17;;;18.87;42.73
86098;BME280;76712;40.528;21.262;2024-02-28T07:41:14;94132.88;;;18.93;42.67
86098;BME280;76712;40.528;21.262;2024-02-28T07:50:38;94136.12;;;19.13;42.44
86098;BME280;76712;40.528;21.262;2024-02-28T07:53:38;94136.10;;;19.19;42.10
86098;BME280;76712;40.528;21.262;2024-02-28T07:56:16;94135.05;;;19.26;42.13
86098;BME280;76712;40.528;21.262;2024-02-28T07:58:52;94134.32;;;19.30;41.92
86098;BME280;76712;40.528;21.262;2024-02-28T08:01:28;94132.56;;;19.34;41.90
86098;BME280;76712;40.528;21.262;2024-02-28T08:13:37;94119.52;;;19.43;41.67
86098;BME280;76712;40.528;21.262;2024-02-28T08:38:47;94126.89;;;19.46;41.68
86098;BME280;76712;40.528;21.262;2024-02-28T08:45:20;94129.26;;;19.43;41.67
86098;BME280;76712;40.528;21.262;2024-02-28T08:48:29;94131.38;;;19.41;41.66
86098;BME280;76712;40.528;21.262;2024-02-28T08:51:20;94131.50;;;19.39;41.64
86098;BME280;76712;40.528;21.262;2024-02-28T08:57:49;94133.91;;;19.36;41.76
86098;BME280;76712;40.528;21.262;2024-02-28T09:00:32;94132.55;;;19.35;41.71
86098;BME280;76712;40.528;21.262;2024-02-28T09:03:26;94130.11;;;19.33;41.76
86098;BME280;76712;40.528;21.262;2024-02-28T09:09:42;94129.48;;;19.31;41.78
86098;BME280;76712;40.528;21.262;2024-02-28T09:12:11;94132.96;;;19.30;41.88
86098;BME280;76712;40.528;21.262;2024-02-28T09:15:01;94130.13;;;19.29;41.97
86098;BME280;76712;40.528;21.262;2024-02-28T09:17:49;94126.56;;;19.27;42.14
86098;BME280;76712;40.528;21.262;2024-02-28T09:21:00;94123.91;;;19.25;42.05
86098;BME280;76712;40.528;21.262;2024-02-28T09:31:11;94135.77;;;19.18;42.20
86098;BME280;76712;40.528;21.262;2024-02-28T09:40:20;94138.90;;;19.13;42.22
86098;BME280;76712;40.528;21.262;2024-02-28T09:43:11;94139.06;;;19.12;42.10
86098;BME280;76712;40.528;21.262;2024-02-28T09:55:58;94129.59;;;19.07;42.22
86098;BME280;76712;40.528;21.262;2024-02-28T10:05:28;94119.59;;;19.04;42.47
86098;BME280;76712;40.528;21.262;2024-02-28T10:08:10;94112.80;;;19.04;42.33
86098;BME280;76712;40.528;21.262;2024-02-28T10:10:46;94108.83;;;19.03;42.34
86098;BME280;76712;40.528;21.262;2024-02-28T10:13:13;94106.17;;;19.01;42.50
86098;BME280;76712;40.528;21.262;2024-02-28T10:22:36;94101.95;;;18.97;42.54
86098;BME280;76712;40.528;21.262;2024-02-28T10:25:02;94102.34;;;18.95;42.58
86098;BME280;76712;40.528;21.262;2024-02-28T10:27:32;94097.45;;;18.94;42.59
86098;BME280;76712;40.528;21.262;2024-02-28T10:30:02;94094.14;;;18.94;42.62
86098;BME280;76712;40.528;21.262;2024-02-28T10:32:51;94088.34;;;18.93;42.58
86098;BME280;76712;40.528;21.262;2024-02-28T10:44:45;94094.48;;;18.89;42.67
86098;BME280;76712;40.528;21.262;2024-02-28T10:47:46;94093.02;;;18.88;42.58
86098;BME280;76712;40.528;21.262;2024-02-28T10:50:31;94086.95;;;18.87;42.60
86098;BME280;76712;40.528;21.262;2024-02-28T11:02:31;94081.64;;;18.81;42.61
86098;BME280;76712;40.528;21.262;2024-02-28T11:04:58;94074.89;;;18.80;42.75
86098;BME280;76712;40.528;21.262;2024-02-28T11:13:59;94073.56;;;18.76;42.80
86098;BME280;76712;40.528;21.262;2024-02-28T11:16:27;94073.45;;;18.74;42.92
86098;BME280;76712;40.528;21.262;2024-02-28T11:19:18;94073.92;;;18.72;42.82
86098;BME280;76712;40.528;21.262;2024-02-28T11:24:54;94069.92;;;18.69;42.90
86098;BME280;76712;40.528;21.262;2024-02-28T11:27:30;94065.24;;;18.68;42.88
86098;BME280;76712;40.528;21.262;2024-02-28T11:36:15;94062.59;;;18.64;42.99
86098;BME280;76712;40.528;21.262;2024-02-28T11:49:24;94058.55;;;18.59;43.07
86098;BME280;76712;40.528;21.262;2024-02-28T11:59:01;94059.47;;;18.57;43.04
86098;BME280;76712;40.528;21.262;2024-02-28T12:01:47;94055.13;;;18.57;43.02
86098;BME280;76712;40.528;21.262;2024-02-28T12:04:18;94056.80;;;18.57;42.99
86098;BME280;76712;40.528;21.262;2024-02-28T12:06:43;94053.82;;;18.56;43.03
86098;BME280;76712;40.528;21.262;2024-02-28T12:25:46;94036.58;;;18.50;43.16
86098;BME280;76712;40.528;21.262;2024-02-28T12:28:22;94037.13;;;18.49;43.06
86098;BME280;76712;40.528;21.262;2024-02-28T12:30:51;94037.73;;;18.49;43.14
86098;BME280;76712;40.528;21.262;2024-02-28T12:33:20;94032.23;;;18.48;43.10
86098;BME280;76712;40.528;21.262;2024-02-28T12:39:31;94025.14;;;18.46;43.21
86098;BME280;76712;40.528;21.262;2024-02-28T12:42:06;94018.84;;;18.46;43.32
86098;BME280;76712;40.528;21.262;2024-02-28T12:44:55;94015.80;;;18.44;43.14
86098;BME280;76712;40.528;21.262;2024-02-28T12:47:21;94017.49;;;18.44;43.26
86098;BME280;76712;40.528;21.262;2024-02-28T12:49:47;94014.29;;;18.42;43.34
86098;BME280;76712;40.528;21.262;2024-02-28T12:52:13;94016.89;;;18.42;43.28
86098;BME280;76712;40.528;21.262;2024-02-28T12:54:39;94016.64;;;18.41;43.33
86098;BME280;76712;40.528;21.262;2024-02-28T13:17:02;94020.40;;;18.34;43.35
86098;BME280;76712;40.528;21.262;2024-02-28T13:26:11;94020.51;;;18.32;43.46
86098;BME280;76712;40.528;21.262;2024-02-28T13:28:44;94020.40;;;18.32;43.60
86098;BME280;76712;40.528;21.262;2024-02-28T13:41:14;94026.27;;;18.28;43.54
86098;BME280;76712;40.528;21.262;2024-02-28T13:43:42;94026.37;;;18.27;43.63
86098;BME280;76712;40.528;21.262;2024-02-28T13:52:59;94032.46;;;18.26;43.60
86098;BME280;76712;40.528;21.262;2024-02-28T13:55:25;94033.81;;;18.24;43.65
86098;BME280;76712;40.528;21.262;2024-02-28T14:04:06;94027.48;;;18.24;43.70
86098;BME280;76712;40.528;21.262;2024-02-28T14:06:35;94033.23;;;18.24;43.82
86098;BME280;76712;40.528;21.262;2024-02-28T14:12:28;94038.00;;;18.22;43.70
86098;BME280;76712;40.528;21.262;2024-02-28T14:14:57;94038.48;;;18.22;43.69
86098;BME280;76712;40.528;21.262;2024-02-28T14:27:20;94033.94;;;18.19;43.87
86098;BME280;76712;40.528;21.262;2024-02-28T14:29:52;94031.94;;;18.18;43.70
86098;BME280;76712;40.528;21.262;2024-02-28T14:32:39;94038.23;;;18.18;43.85
86098;BME280;76712;40.528;21.262;2024-02-28T14:35:06;94037.67;;;18.18;43.95
86098;BME280;76712;40.528;21.262;2024-02-28T14:37:36;94036.72;;;18.17;43.74
86098;BME280;76712;40.528;21.262;2024-02-28T14:40:04;94041.05;;;18.15;43.99
86098;BME280;76712;40.528;21.262;2024-02-28T14:42:44;94039.64;;;18.15;43.88
86098;BME280;76712;40.528;21.262;2024-02-28T14:45:12;94041.00;;;18.15;43.90
86098;BME280;76712;40.528;21.262;2024-02-28T14:47:52;94039.20;;;18.15;43.88
86098;BME280;76712;40.528;21.262;2024-02-28T14:50:18;94039.59;;;18.14;43.92
86098;BME280;76712;40.528;21.262;2024-02-28T14:53:04;94036.11;;;18.14;43.93
86098;BME280;76712;40.528;21.262;2024-02-28T14:55:29;94037.41;;;18.13;43.90
86098;BME280;76712;40.528;21.262;2024-02-28T14:57:55;94035.67;;;18.13;43.95
86098;BME280;76712;40.528;21.262;2024-02-28T15:00:21;94035.08;;;18.12;43.87
86098;BME280;76712;40.528;21.262;2024-02-28T15:02:47;94037.16;;;18.13;43.93
86098;BME280;76712;40.528;21.262;2024-02-28T15:05:22;94039.09;;;18.13;43.83
86098;BME280;76712;40.528;21.262;2024-02-28T15:08:10;94034.98;;;18.12;43.88
86098;BME280;76712;40.528;21.262;2024-02-28T15:14:09;94037.36;;;18.11;43.83
86098;BME280;76712;40.528;21.262;2024-02-28T15:16:35;94036.13;;;18.10;43.86
86098;BME280;76712;40.528;21.262;2024-02-28T15:19:16;94040.46;;;18.10;43.87
86098;BME280;76712;40.528;21.262;2024-02-28T15:25:21;94044.86;;;18.09;43.91
86098;BME280;76712;40.528;21.262;2024-02-28T15:27:47;94040.30;;;18.08;44.03
86098;BME280;76712;40.528;21.262;2024-02-28T15:33:04;94045.08;;;18.08;44.02
86098;BME280;76712;40.528;21.262;2024-02-28T15:39:17;94037.48;;;18.07;43.97
86098;BME280;76712;40.528;21.262;2024-02-28T15:41:42;94039.48;;;18.06;44.01
86098;BME280;76712;40.528;21.262;2024-02-28T16:00:36;94042.38;;;18.03;44.05
86098;BME280;76712;40.528;21.262;2024-02-28T16:03:02;94051.55;;;18.03;44.20
86098;BME280;76712;40.528;21.262;2024-02-28T16:05:29;94047.10;;;18.03;44.05
86098;BME280;76712;40.528;21.262;2024-02-28T16:07:55;94047.48;;;18.02;44.16
86098;BME280;76712;40.528;21.262;2024-02-28T16:10:23;94051.59;;;18.02;44.13
86098;BME280;76712;40.528;21.262;2024-02-28T16:12:49;94053.54;;;18.02;44.24
86098;BME280;76712;40.528;21.262;2024-02-28T16:27:29;94054.15;;;17.99;44.29
86098;BME280;76712;40.528;21.262;2024-02-28T16:29:55;94061.91;;;17.99;44.31
86098;BME280;76712;40.528;21.262;2024-02-28T16:32:50;94058.97;;;17.98;44.24
86098;BME280;76712;40.528;21.262;2024-02-28T16:58:50;94075.30;;;17.97;44.28
86098;BME280;76712;40.528;21.262;2024-02-28T17:11:39;94085.27;;;17.96;44.23
86098;BME280;76712;40.528;21.262;2024-02-28T17:31:08;94080.45;;;17.92;44.20
86098;BME280;76712;40.528;21.262;2024-02-28T17:33:57;94084.25;;;17.92;44.05
86098;BME280;76712;40.528;21.262;2024-02-28T17:36:58;94089.67;;;17.92;44.11
86098;BME280;76712;40.528;21.262;2024-02-28T17:39:35;94088.32;;;17.92;44.19
86098;BME280;76712;40.528;21.262;2024-02-28T17:42:04;94081.00;;;17.91;44.18
86098;BME280;76712;40.528;21.262;2024-02-28T17:47:56;94080.99;;;17.90;44.11
86098;BME280;76712;40.528;21.262;2024-02-28T17:50:23;94084.04;;;17.89;44.29
86098;BME280;76712;40.528;21.262;2024-02-28T17:52:50;94085.50;;;17.89;44.32
86098;BME280;76712;40.528;21.262;2024-02-28T17:55:15;94085.06;;;17.89;44.32
86098;BME280;76712;40.528;21.262;2024-02-28T17:57:41;94085.06;;;17.88;44.14
86098;BME280;76712;40.528;21.262;2024-02-28T18:03:33;94085.87;;;17.87;44.18
86098;BME280;76712;40.528;21.262;2024-02-28T18:05:59;94089.35;;;17.86;44.09
86098;BME280;76712;40.528;21.262;2024-02-28T18:08:25;94091.84;;;17.86;44.21
86098;BME280;76712;40.528;21.262;2024-02-28T18:10:54;94090.05;;;17.86;44.17
86098;BME280;76712;40.528;21.262;2024-02-28T18:19:59;94097.09;;;17.84;44.22
86098;BME280;76712;40.528;21.262;2024-02-28T18:22:25;94099.59;;;17.84;44.28
86098;BME280;76712;40.528;21.262;2024-02-28T18:28:48;94105.39;;;17.83;44.26
86098;BME280;76712;40.528;21.262;2024-02-28T18:31:14;94110.38;;;17.83;44.09
86098;BME280;76712;40.528;21.262;2024-02-28T18:33:40;94109.23;;;17.83;44.14
86098;BME280;76712;40.528;21.262;2024-02-28T18:39:32;94114.83;;;17.82;44.18
86098;BME280;76712;40.528;21.262;2024-02-28T18:41:58;94114.35;;;17.82;44.38
86098;BME280;76712;40.528;21.262;2024-02-28T18:44:24;94109.48;;;17.82;44.22
86098;BME280;76712;40.528;21.262;2024-02-28T18:46:50;94107.84;;;17.82;44.39
86098;BME280;76712;40.528;21.262;2024-02-28T18:49:16;94108.66;;;17.81;44.20
86098;BME280;76712;40.528;21.262;2024-02-28T18:51:41;94109.84;;;17.81;44.17
86098;BME280;76712;40.528;21.262;2024-02-28T18:54:08;94105.92;;;17.81;44.25
86098;BME280;76712;40.528;21.262;2024-02-28T18:56:33;94111.95;;;17.80;44.19
86098;BME280;76712;40.528;21.262;2024-02-28T18:59:00;94116.79;;;17.80;44.23
86098;BME280;76712;40.528;21.262;2024-02-28T19:14:41;94122.61;;;17.77;44.34
86098;BME280;76712;40.528;21.262;2024-02-28T19:17:21;94116.98;;;17.76;44.20
86098;BME280;76712;40.528;21.262;2024-02-28T19:19:47;94122.94;;;17.76;44.17
86098;BME280;76712;40.528;21.262;2024-02-28T19:22:14;94117.98;;;17.77;44.27
86098;BME280;76712;40.528;21.262;2024-02-28T19:24:43;94122.98;;;17.77;44.18
86098;BME280;76712;40.528;21.262;2024-02-28T19:27:10;94124.72;;;17.77;44.22
86098;BME280;76712;40.528;21.262;2024-02-28T19:29:36;94129.12;;;17.76;44.39
86098;BME280;76712;40.528;21.262;2024-02-28T19:35:46;94134.97;;;17.76;44.32
86098;BME280;76712;40.528;21.262;2024-02-28T19:38:32;94141.15;;;17.76;44.31
86098;BME280;76712;40.528;21.262;2024-02-28T19:41:09;94146.08;;;17.76;44.35
86098;BME280;76712;40.528;21.262;2024-02-28T19:43:41;94151.61;;;17.75;44.24
86098;BME280;76712;40.528;21.262;2024-02-28T19:46:07;94154.86;;;17.75;44.40
86098;BME280;76712;40.528;21.262;2024-02-28T19:48:34;94151.34;;;17.74;44.35
86098;BME280;76712;40.528;21.262;2024-02-28T19:51:03;94153.28;;;17.73;44.21
86098;BME280;76712;40.528;21.262;2024-02-28T19:53:29;94156.53;;;17.73;44.26
86098;BME280;76712;40.528;21.262;2024-02-28T19:56:03;94156.69;;;17.73;44.34
86098;BME280;76712;40.528;21.262;2024-02-28T19:58:29;94148.18;;;17.73;44.37
86098;BME280;76712;40.528;21.262;2024-02-28T20:00:55;94150.56;;;17.72;44.34
86098;BME280;76712;40.528;21.262;2024-02-28T20:13:24;94139.18;;;17.70;44.34
86098;BME280;76712;40.528;21.262;2024-02-28T20:32:28;94146.92;;;17.67;44.45
86098;BME280;76712;40.528;21.262;2024-02-28T20:34:54;94150.30;;;17.68;44.52
86098;BME280;76712;40.528;21.262;2024-02-28T20:37:22;94152.52;;;17.69;44.35
86098;BME280;76712;40.528;21.262;2024-02-28T20:39:48;94148.02;;;17.67;44.51
86098;BME280;76712;40.528;21.262;2024-02-28T20:48:44;94148.94;;;17.68;44.52
86098;BME280;76712;40.528;21.262;2024-02-28T20:51:19;94150.46;;;17.68;44.37
86098;BME280;76712;40.528;21.262;2024-02-28T20:53:50;94159.69;;;17.68;44.49
86098;BME280;76712;40.528;21.262;2024-02-28T20:56:23;94158.04;;;17.67;44.45
86098;BME280;76712;40.528;21.262;2024-02-28T20:58:51;94155.27;;;17.67;44.46
86098;BME280;76712;40.528;21.262;2024-02-28T21:01:17;94154.62;;;17.67;44.62
86098;BME280;76712;40.528;21.262;2024-02-28T21:10:07;94159.17;;;17.66;44.57
86098;BME280;76712;40.528;21.262;2024-02-28T21:12:35;94158.75;;;17.65;44.56
86098;BME280;76712;40.528;21.262;2024-02-28T21:18:27;94157.88;;;17.65;44.58
86098;BME280;76712;40.528;21.262;2024-02-28T21:20:53;94155.65;;;17.65;44.54
86098;BME280;76712;40.528;21.262;2024-02-28T21:23:23;94156.30;;;17.65;44.45
86098;BME280;76712;40.528;21.262;2024-02-28T21:25:49;94152.72;;;17.64;44.57
86098;BME280;76712;40.528;21.262;2024-02-28T21:28:15;94151.25;;;17.64;44.54
86098;BME280;76712;40.528;21.262;2024-02-28T21:34:07;94147.84;;;17.63;44.63
86098;BME280;76712;40.528;21.262;2024-02-28T21:36:33;94141.33;;;17.62;44.46
86098;BME280;76712;40.528;21.262;2024-02-28T21:38:59;94143.18;;;17.63;44.53
86098;BME280;76712;40.528;21.262;2024-02-28T21:41:25;94137.77;;;17.62;44.54
86098;BME280;76712;40.528;21.262;2024-02-28T21:43:54;94148.71;;;17.62;44.57
86098;BME280;76712;40.528;21.262;2024-02-28T21:46:24;94154.02;;;17.62;44.54
86098;BME280;76712;40.528;21.262;2024-02-28T21:48:50;94161.08;;;17.62;44.60
86098;BME280;76712;40.528;21.262;2024-02-28T21:51:16;94163.52;;;17.61;44.58
86098;BME280;76712;40.528;21.262;2024-02-28T21:53:46;94160.20;;;17.61;44.55
86098;BME280;76712;40.528;21.262;2024-02-28T21:56:12;94167.19;;;17.61;44.67
86098;BME280;76712;40.528;21.262;2024-02-28T21:58:42;94166.21;;;17.60;44.62
86098;BME280;76712;40.528;21.262;2024-02-28T22:04:41;94159.22;;;17.60;44.61
86098;BME280;76712;40.528;21.262;2024-02-28T22:07:07;94153.81;;;17.59;44.78
86098;BME280;76712;40.528;21.262;2024-02-28T22:16:16;94156.17;;;17.58;44.64
86098;BME280;76712;40.528;21.262;2024-02-28T22:18:42;94156.99;;;17.57;44.66
86098;BME280;76712;40.528;21.262;2024-02-28T22:21:11;94163.39;;;17.58;44.64
86098;BME280;76712;40.528;21.262;2024-02-28T22:23:38;94161.05;;;17.58;44.66
86098;BME280;76712;40.528;21.262;2024-02-28T22:32:33;94167.94;;;17.57;44.75
86098;BME280;76712;40.528;21.262;2024-02-28T22:34:59;94171.73;;;17.57;44.74
86098;BME280;76712;40.528;21.262;2024-02-28T22:37:25;94170.82;;;17.57;44.80
86098;BME280;76712;40.528;21.262;2024-02-28T22:39:51;94175.48;;;17.57;44.78
86098;BME280;76712;40.528;21.262;2024-02-28T22:42:17;94180.09;;;17.56;44.67
86098;BME280;76712;40.528;21.262;2024-02-28T22:44:44;94185.27;;;17.56;44.75
86098;BME280;76712;40.528;21.262;2024-02-28T22:53:50;94189.89;;;17.54;44.81
86098;BME280;76712;40.528;21.262;2024-02-28T23:12:57;94211.84;;;17.54;44.83
86098;BME280;76712;40.528;21.262;2024-02-28T23:15:26;94212.00;;;17.54;44.98
86098;BME280;76712;40.528;21.262;2024-02-28T23:21:34;94208.11;;;17.53;44.91
86098;BME280;76712;40.528;21.262;2024-02-28T23:24:00;94206.73;;;17.53;44.90
86098;BME280;76712;40.528;21.262;2024-02-28T23:26:27;94202.73;;;17.53;44.95
86098;BME280;76712;40.528;21.262;2024-02-28T23:28:55;94202.95;;;17.53;45.00
86098;BME280;76712;40.528;21.262;2024-02-28T23:31:21;94197.63;;;17.52;44.97
86098;BME280;76712;40.528;21.262;2024-02-28T23:33:47;94191.19;;;17.51;44.91
86098;BME280;76712;40.528;21.262;2024-02-28T23:36:13;94188.52;;;17.52;45.00
86098;BME280;76712;40.528;21.262;2024-02-28T23:42:05;94189.93;;;17.51;44.94
86098;BME280;76712;40.528;21.262;2024-02-28T23:44:32;94193.19;;;17.51;45.05
86098;BME280;76712;40.528;21.262;2024-02-28T23:46:58;94200.45;;;17.51;45.17
86098;BME280;76712;40.528;21.262;2024-02-28T23:49:27;94197.64;;;17.50;45.07
86098;BME280;76712;40.528;21.262;2024-02-28T23:51:56;94198.17;;;17.50;44.97
86098;BME280;76712;40.528;21.262;2024-02-28T23:54:21;94200.45;;;17.51;45.03
86098;BME280;76712;40.528;21.262;2024-02-28T23:56:47;94200.80;;;17.50;45.07
86098;BME280;76712;40.528;21.262;2024-02-28T23:59:13;94196.96;;;17.50;45.00
